createdAt,value
2019-03-31T00:01:59.691Z,9.50
2019-03-31T00:04:30.796Z,9.50
2019-03-31T00:07:01.805Z,9.40
2019-03-31T00:09:32.906Z,9.40
2019-03-31T00:12:03.960Z,9.40
2019-03-31T00:14:35.123Z,9.40
2019-03-31T00:17:06.286Z,9.30
2019-03-31T00:19:37.418Z,9.30
2019-03-31T00:22:08.412Z,9.30
2019-03-31T00:24:40.969Z,9.30
2019-03-31T00:27:12.020Z,9.30
2019-03-31T00:29:43.140Z,9.30
2019-03-31T00:32:14.595Z,9.20
2019-03-31T00:34:45.673Z,9.20
2019-03-31T00:37:16.922Z,9.20
2019-03-31T00:39:47.998Z,9.20
2019-03-31T00:42:19.049Z,9.20
2019-03-31T00:44:50.070Z,9.20
2019-03-31T00:47:21.086Z,9.20
2019-03-31T00:49:52.161Z,9.20
2019-03-31T00:52:23.537Z,9.10
2019-03-31T00:54:54.550Z,9.10
2019-03-31T00:57:25.563Z,9.10
2019-03-31T00:59:56.608Z,9.00
2019-03-31T01:02:30.757Z,8.90
2019-03-31T01:05:02.195Z,8.80
2019-03-31T01:07:34.717Z,8.80
2019-03-31T01:10:07.102Z,8.80
2019-03-31T01:12:39.020Z,8.80
2019-03-31T01:15:14.852Z,8.70
2019-03-31T01:17:46.026Z,8.70
2019-03-31T01:20:18.167Z,8.70
2019-03-31T01:22:49.280Z,8.70
2019-03-31T01:25:20.862Z,8.70
2019-03-31T01:27:52.272Z,8.60
2019-03-31T01:30:23.749Z,8.60
2019-03-31T01:32:55.460Z,8.60
2019-03-31T01:35:26.625Z,8.60
2019-03-31T01:37:57.904Z,8.60
2019-03-31T01:40:29.369Z,8.50
2019-03-31T01:43:00.453Z,8.50
2019-03-31T01:45:31.495Z,8.50
2019-03-31T01:48:02.569Z,8.50
2019-03-31T01:50:33.904Z,8.50
2019-03-31T01:53:05.124Z,8.40
2019-03-31T01:55:36.230Z,8.40
2019-03-31T01:58:07.338Z,8.40
2019-03-31T02:00:41.228Z,8.40
2019-03-31T02:03:12.318Z,8.30
2019-03-31T02:05:43.421Z,8.30
2019-03-31T02:08:14.472Z,8.30
2019-03-31T02:10:45.604Z,8.30
2019-03-31T02:13:16.723Z,8.30
2019-03-31T02:15:47.867Z,8.20
2019-03-31T02:18:19.166Z,8.10
2019-03-31T02:20:50.209Z,8.10
2019-03-31T02:23:21.229Z,8.00
2019-03-31T02:25:52.336Z,8.00
2019-03-31T02:28:23.341Z,8.00
2019-03-31T02:30:54.384Z,8.00
2019-03-31T02:33:26.427Z,8.00
2019-03-31T02:35:57.470Z,8.00
2019-03-31T02:38:28.497Z,8.00
2019-03-31T02:40:59.530Z,7.90
2019-03-31T02:43:30.544Z,7.90
2019-03-31T02:46:01.883Z,7.90
2019-03-31T02:48:33.045Z,7.90
2019-03-31T02:51:04.066Z,7.90
2019-03-31T02:53:35.452Z,7.90
2019-03-31T02:56:06.805Z,7.90
2019-03-31T02:58:38.526Z,7.90
2019-03-31T03:01:10.374Z,7.80
2019-03-31T03:03:42.566Z,7.80
2019-03-31T03:06:14.394Z,7.80
2019-03-31T03:08:48.384Z,7.80
2019-03-31T03:11:21.302Z,7.80
2019-03-31T03:13:53.434Z,7.70
2019-03-31T03:16:24.449Z,7.70
2019-03-31T03:18:55.558Z,7.70
2019-03-31T03:21:27.019Z,7.60
2019-03-31T03:23:58.040Z,7.60
2019-03-31T03:26:29.070Z,7.60
2019-03-31T03:29:00.165Z,7.60
2019-03-31T03:31:31.524Z,7.60
2019-03-31T03:34:02.526Z,7.50
2019-03-31T03:36:33.525Z,7.50
2019-03-31T03:39:07.070Z,7.50
2019-03-31T03:41:38.167Z,7.50
2019-03-31T03:44:09.516Z,7.40
2019-03-31T03:46:40.561Z,7.40
2019-03-31T03:49:11.673Z,7.40
2019-03-31T03:51:42.742Z,7.40
2019-03-31T03:54:13.844Z,7.40
2019-03-31T03:56:45.590Z,7.40
2019-03-31T03:59:16.607Z,7.40
2019-03-31T04:01:47.618Z,7.40
2019-03-31T04:04:19.007Z,7.30
2019-03-31T04:06:50.457Z,7.30
2019-03-31T04:09:21.473Z,7.30
2019-03-31T04:11:52.683Z,7.30
2019-03-31T04:14:23.736Z,7.20
2019-03-31T04:16:54.820Z,7.10
2019-03-31T04:19:25.858Z,7.10
2019-03-31T04:21:56.887Z,7.10
2019-03-31T04:24:28.187Z,7.10
2019-03-31T04:26:59.516Z,7.10
2019-03-31T04:29:30.547Z,7.10
2019-03-31T04:32:01.943Z,7.00
2019-03-31T04:34:32.946Z,7.00
2019-03-31T04:37:04.281Z,7.00
2019-03-31T04:39:35.379Z,7.00
2019-03-31T04:42:06.401Z,7.00
2019-03-31T04:44:37.854Z,7.00
2019-03-31T04:47:08.969Z,7.00
2019-03-31T04:49:40.084Z,7.00
2019-03-31T04:52:11.171Z,6.90
2019-03-31T04:54:42.178Z,6.90
2019-03-31T04:57:13.257Z,6.90
2019-03-31T04:59:44.271Z,6.90
2019-03-31T05:02:15.282Z,6.90
2019-03-31T05:04:46.618Z,6.80
2019-03-31T05:07:17.701Z,6.80
2019-03-31T05:09:49.089Z,6.80
2019-03-31T05:12:20.149Z,6.80
2019-03-31T05:14:51.171Z,6.70
2019-03-31T05:17:22.181Z,6.70
2019-03-31T05:19:53.236Z,6.70
2019-03-31T05:22:24.255Z,6.60
2019-03-31T05:24:56.368Z,6.60
2019-03-31T05:27:27.355Z,6.60
2019-03-31T05:29:58.551Z,6.70
2019-03-31T05:32:29.528Z,6.70
2019-03-31T05:35:01.666Z,6.70
2019-03-31T05:37:32.685Z,6.70
2019-03-31T05:40:03.952Z,6.80
2019-03-31T05:42:34.920Z,6.80
2019-03-31T05:45:05.995Z,6.80
2019-03-31T05:47:36.998Z,6.80
2019-03-31T05:50:08.017Z,6.90
2019-03-31T05:52:39.060Z,6.90
2019-03-31T05:55:10.280Z,7.00
2019-03-31T05:57:41.266Z,7.00
2019-03-31T06:00:12.469Z,7.10
2019-03-31T06:02:43.475Z,7.10
2019-03-31T06:05:14.477Z,7.10
2019-03-31T06:07:46.456Z,7.20
2019-03-31T06:10:17.536Z,7.20
2019-03-31T06:12:48.643Z,7.30
2019-03-31T06:15:39.744Z,7.40
2019-03-31T06:18:17.457Z,7.40
2019-03-31T06:20:48.740Z,7.50
2019-03-31T06:23:19.802Z,7.60
2019-03-31T06:25:50.831Z,7.70
2019-03-31T06:28:21.856Z,7.80
2019-03-31T06:30:52.877Z,7.90
2019-03-31T06:33:23.989Z,8.00
2019-03-31T06:35:55.000Z,8.10
2019-03-31T06:38:26.093Z,8.20
2019-03-31T06:40:57.749Z,8.30
2019-03-31T06:43:28.754Z,8.40
2019-03-31T06:45:59.777Z,8.40
2019-03-31T06:48:30.830Z,8.50
2019-03-31T06:51:01.916Z,8.60
2019-03-31T06:53:32.997Z,8.70
2019-03-31T06:56:04.737Z,8.80
2019-03-31T06:58:35.845Z,8.90
2019-03-31T07:01:06.900Z,9.00
2019-03-31T07:03:37.981Z,9.10
2019-03-31T07:06:09.008Z,9.10
2019-03-31T07:08:40.034Z,9.20
2019-03-31T07:11:11.468Z,9.30
2019-03-31T07:13:42.527Z,9.40
2019-03-31T07:16:13.541Z,9.50
2019-03-31T07:18:44.569Z,9.60
2019-03-31T07:21:16.473Z,9.60
2019-03-31T07:23:47.772Z,9.70
2019-03-31T07:26:18.882Z,9.80
2019-03-31T07:28:50.702Z,9.90
2019-03-31T07:31:21.736Z,10.00
2019-03-31T07:33:52.794Z,10.10
2019-03-31T07:36:24.789Z,10.30
2019-03-31T07:38:55.939Z,10.40
2019-03-31T07:41:27.477Z,10.40
2019-03-31T07:43:58.638Z,10.40
2019-03-31T07:46:29.680Z,10.50
2019-03-31T07:49:00.825Z,10.50
2019-03-31T07:51:31.837Z,10.60
2019-03-31T07:54:02.938Z,10.60
2019-03-31T07:56:34.314Z,10.80
2019-03-31T07:59:05.510Z,10.90
2019-03-31T08:01:36.537Z,11.00
2019-03-31T08:04:08.454Z,11.10
2019-03-31T08:06:39.516Z,11.20
2019-03-31T08:09:11.049Z,11.40
2019-03-31T08:11:42.467Z,11.40
2019-03-31T08:14:13.997Z,11.50
2019-03-31T08:16:45.073Z,11.60
2019-03-31T08:19:16.158Z,11.80
2019-03-31T08:21:47.214Z,11.90
2019-03-31T08:24:18.320Z,11.90
2019-03-31T08:26:49.820Z,12.00
2019-03-31T08:29:20.970Z,12.10
2019-03-31T08:31:52.085Z,12.30
2019-03-31T08:34:23.128Z,12.30
2019-03-31T08:36:54.213Z,12.50
2019-03-31T08:39:25.296Z,12.60
2019-03-31T08:41:56.296Z,12.70
2019-03-31T08:44:27.366Z,12.80
2019-03-31T08:46:58.440Z,12.90
2019-03-31T08:49:29.528Z,13.10
2019-03-31T08:52:01.445Z,13.20
2019-03-31T08:54:33.205Z,13.30
2019-03-31T08:57:05.552Z,13.40
2019-03-31T08:59:36.585Z,13.50
2019-03-31T09:02:25.448Z,13.60
2019-03-31T09:04:56.488Z,13.70
2019-03-31T09:07:27.536Z,13.80
2019-03-31T09:09:59.053Z,13.90
2019-03-31T09:12:30.382Z,14.10
2019-03-31T09:15:01.771Z,14.20
2019-03-31T09:17:34.494Z,14.30
2019-03-31T09:20:06.475Z,14.50
2019-03-31T09:22:37.830Z,14.50
2019-03-31T09:25:09.106Z,14.70
2019-03-31T09:27:40.132Z,14.80
2019-03-31T09:30:12.264Z,15.00
2019-03-31T09:32:43.381Z,15.10
2019-03-31T09:35:14.532Z,15.20
2019-03-31T09:37:45.601Z,15.30
2019-03-31T09:40:18.533Z,15.40
2019-03-31T09:42:49.565Z,15.60
2019-03-31T09:45:20.740Z,15.80
2019-03-31T09:47:51.934Z,16.00
2019-03-31T09:50:23.449Z,16.10
2019-03-31T09:52:54.764Z,16.30
2019-03-31T09:55:25.882Z,16.40
2019-03-31T09:57:58.053Z,16.60
2019-03-31T10:00:44.488Z,16.80
2019-03-31T10:03:16.452Z,16.90
2019-03-31T10:05:48.377Z,17.20
2019-03-31T10:08:22.009Z,17.40
2019-03-31T10:10:53.623Z,17.70
2019-03-31T10:13:24.713Z,18.10
2019-03-31T10:15:56.096Z,18.50
2019-03-31T10:18:27.909Z,18.90
2019-03-31T10:20:59.183Z,19.30
2019-03-31T10:23:30.249Z,19.70
2019-03-31T10:26:01.469Z,20.20
2019-03-31T10:28:32.490Z,20.60
2019-03-31T10:31:03.522Z,21.10
2019-03-31T10:33:34.587Z,21.60
2019-03-31T10:36:05.668Z,22.10
2019-03-31T10:38:36.778Z,22.50
2019-03-31T10:41:09.284Z,22.90
2019-03-31T10:43:40.338Z,23.30
2019-03-31T10:46:11.384Z,23.70
2019-03-31T10:48:42.527Z,24.10
2019-03-31T10:51:13.937Z,24.30
2019-03-31T10:53:44.997Z,24.60
2019-03-31T10:56:16.030Z,24.80
2019-03-31T10:58:47.494Z,25.20
2019-03-31T11:01:18.610Z,25.50
2019-03-31T11:03:49.748Z,25.80
2019-03-31T11:06:21.350Z,25.80
2019-03-31T11:08:52.385Z,26.00
2019-03-31T11:11:23.509Z,26.00
2019-03-31T11:13:54.622Z,26.00
2019-03-31T11:16:25.719Z,26.10
2019-03-31T11:18:56.799Z,26.40
2019-03-31T11:21:42.645Z,26.80
2019-03-31T11:24:14.372Z,27.20
2019-03-31T11:26:45.843Z,27.70
2019-03-31T11:29:17.291Z,27.90
2019-03-31T11:31:48.463Z,28.00
2019-03-31T11:34:19.854Z,28.00
2019-03-31T11:36:52.046Z,28.30
2019-03-31T11:39:23.050Z,28.60
2019-03-31T11:41:54.109Z,28.80
2019-03-31T11:44:27.685Z,29.00
2019-03-31T11:46:58.433Z,29.10
2019-03-31T11:49:31.911Z,29.20
2019-03-31T11:52:03.379Z,29.10
2019-03-31T11:54:34.405Z,29.10
2019-03-31T11:57:05.434Z,29.00
2019-03-31T11:59:36.721Z,29.30
2019-03-31T12:02:07.881Z,29.40
2019-03-31T12:04:38.917Z,29.60
2019-03-31T12:07:11.249Z,29.80
2019-03-31T12:09:42.342Z,30.00
2019-03-31T12:12:13.399Z,30.20
2019-03-31T12:14:49.402Z,30.40
2019-03-31T12:17:25.061Z,30.80
2019-03-31T12:19:56.245Z,31.00
2019-03-31T12:22:27.615Z,31.20
2019-03-31T12:24:58.702Z,31.30
2019-03-31T12:27:29.871Z,31.40
2019-03-31T12:30:01.024Z,31.70
2019-03-31T12:32:32.449Z,31.90
2019-03-31T12:35:03.529Z,32.10
2019-03-31T12:37:42.200Z,32.30
2019-03-31T12:40:07.804Z,32.60
2019-03-31T12:42:38.945Z,32.80
2019-03-31T12:45:10.218Z,32.80
2019-03-31T12:47:41.289Z,32.50
2019-03-31T12:50:12.357Z,32.30
2019-03-31T12:52:47.403Z,32.10
2019-03-31T12:55:16.260Z,32.00
2019-03-31T12:57:47.445Z,32.20
2019-03-31T13:00:18.846Z,32.60
2019-03-31T13:02:49.996Z,32.30
2019-03-31T13:05:21.184Z,31.80
2019-03-31T13:07:56.430Z,31.40
2019-03-31T13:10:26.415Z,31.50
2019-03-31T13:12:57.622Z,31.80
2019-03-31T13:15:28.863Z,31.90
2019-03-31T13:17:59.886Z,31.50
2019-03-31T13:20:31.312Z,31.30
2019-03-31T13:23:03.319Z,31.00
2019-03-31T13:25:34.421Z,31.00
2019-03-31T13:28:05.980Z,30.90
2019-03-31T13:30:37.227Z,31.00
2019-03-31T13:33:08.252Z,31.40
2019-03-31T13:35:39.309Z,31.80
2019-03-31T13:38:11.717Z,32.50
2019-03-31T13:40:42.940Z,32.90
2019-03-31T13:43:13.995Z,32.80
2019-03-31T13:45:45.094Z,32.50
2019-03-31T13:48:16.120Z,32.50
2019-03-31T13:50:48.649Z,32.90
2019-03-31T13:53:19.777Z,33.00
2019-03-31T13:55:50.869Z,33.10
2019-03-31T13:58:23.295Z,33.00
2019-03-31T14:00:57.058Z,32.80
2019-03-31T14:03:27.537Z,32.40
2019-03-31T14:05:58.705Z,31.80
2019-03-31T14:08:29.736Z,31.00
2019-03-31T14:11:01.095Z,30.60
2019-03-31T14:13:33.093Z,30.80
2019-03-31T14:16:04.098Z,31.10
2019-03-31T14:18:35.120Z,30.90
2019-03-31T14:21:06.184Z,30.80
2019-03-31T14:23:37.392Z,30.80
2019-03-31T14:26:09.699Z,30.90
2019-03-31T14:28:40.805Z,30.90
2019-03-31T14:31:11.879Z,31.10
2019-03-31T14:33:43.325Z,31.10
2019-03-31T14:36:14.363Z,31.10
2019-03-31T14:38:45.638Z,31.50
2019-03-31T14:41:16.687Z,31.50
2019-03-31T14:43:48.497Z,31.80
2019-03-31T14:46:19.853Z,32.30
2019-03-31T14:48:51.126Z,32.70
2019-03-31T14:51:22.160Z,32.90
2019-03-31T14:53:53.194Z,32.90
2019-03-31T14:56:24.300Z,33.00
2019-03-31T14:58:55.352Z,32.60
2019-03-31T15:01:26.420Z,32.60
2019-03-31T15:03:57.832Z,32.50
2019-03-31T15:06:37.952Z,32.10
2019-03-31T15:09:09.553Z,31.40
2019-03-31T15:11:40.669Z,30.90
2019-03-31T15:14:11.683Z,30.10
2019-03-31T15:16:42.825Z,29.60
2019-03-31T15:19:13.922Z,29.50
2019-03-31T15:21:45.359Z,29.10
2019-03-31T15:24:17.661Z,28.60
2019-03-31T15:26:50.124Z,28.00
2019-03-31T15:29:21.551Z,27.20
2019-03-31T15:31:52.645Z,26.60
2019-03-31T15:34:23.988Z,26.10
2019-03-31T15:36:55.194Z,25.80
2019-03-31T15:39:26.326Z,25.60
2019-03-31T15:41:57.509Z,25.50
2019-03-31T15:44:28.765Z,25.30
2019-03-31T15:47:02.573Z,25.10
2019-03-31T15:49:33.677Z,24.80
2019-03-31T15:52:08.469Z,24.60
2019-03-31T15:54:39.448Z,24.60
2019-03-31T15:57:19.338Z,24.60
2019-03-31T15:59:53.635Z,23.90
2019-03-31T16:02:26.522Z,24.20
2019-03-31T16:04:58.051Z,23.80
2019-03-31T16:07:29.758Z,23.60
2019-03-31T16:10:00.760Z,23.40
2019-03-31T16:12:31.537Z,23.50
2019-03-31T16:15:02.796Z,23.70
2019-03-31T16:17:35.082Z,23.80
2019-03-31T16:20:06.935Z,23.90
2019-03-31T16:22:37.538Z,24.00
2019-03-31T16:25:17.456Z,24.00
2019-03-31T16:27:48.305Z,24.30
2019-03-31T16:30:19.389Z,24.30
2019-03-31T16:32:50.264Z,24.20
2019-03-31T16:35:21.490Z,24.10
2019-03-31T16:37:52.089Z,24.10
2019-03-31T16:40:22.880Z,24.00
2019-03-31T16:42:53.756Z,24.00
2019-03-31T16:45:26.301Z,23.80
2019-03-31T16:47:57.661Z,23.30
2019-03-31T16:50:28.639Z,22.80
2019-03-31T16:52:59.676Z,22.30
2019-03-31T16:55:44.565Z,21.90
2019-03-31T16:58:33.963Z,21.50
2019-03-31T17:01:06.789Z,21.20
2019-03-31T17:03:37.598Z,20.90
2019-03-31T17:06:08.365Z,20.60
2019-03-31T17:08:39.009Z,20.40
2019-03-31T17:11:09.661Z,20.30
2019-03-31T17:13:40.346Z,20.10
2019-03-31T17:16:11.101Z,19.90
2019-03-31T17:18:41.640Z,19.80
2019-03-31T17:21:12.165Z,19.70
2019-03-31T17:23:42.660Z,19.60
2019-03-31T17:26:13.448Z,19.50
2019-03-31T17:28:44.346Z,19.40
2019-03-31T17:31:15.261Z,19.20
2019-03-31T17:33:46.110Z,19.10
2019-03-31T17:36:16.647Z,19.00
2019-03-31T17:38:47.264Z,18.90
2019-03-31T17:41:18.806Z,18.70
2019-03-31T17:43:50.377Z,18.60
2019-03-31T17:46:22.050Z,18.50
2019-03-31T17:48:52.711Z,18.40
2019-03-31T17:51:23.902Z,18.20
2019-03-31T17:53:54.996Z,18.10
2019-03-31T17:56:25.444Z,18.00
2019-03-31T17:58:56.128Z,17.90
2019-03-31T18:01:26.838Z,17.70
2019-03-31T18:03:57.489Z,17.40
2019-03-31T18:06:28.179Z,17.20
2019-03-31T18:08:58.900Z,16.90
2019-03-31T18:11:29.707Z,16.80
2019-03-31T18:14:00.742Z,16.60
2019-03-31T18:16:31.998Z,16.40
2019-03-31T18:19:03.036Z,16.30
2019-03-31T18:21:33.651Z,16.10
2019-03-31T18:24:04.587Z,16.00
2019-03-31T18:26:35.273Z,15.90
2019-03-31T18:29:05.939Z,15.80
2019-03-31T18:31:37.165Z,15.80
2019-03-31T18:34:08.060Z,15.70
2019-03-31T18:36:38.875Z,15.60
2019-03-31T18:39:09.781Z,15.50
2019-03-31T18:41:40.918Z,15.40
2019-03-31T18:44:13.759Z,15.30
2019-03-31T18:46:44.541Z,15.20
2019-03-31T18:49:15.568Z,15.20
2019-03-31T18:51:48.060Z,15.10
2019-03-31T18:54:44.231Z,15.00
2019-03-31T18:57:34.259Z,15.00
2019-03-31T19:00:26.038Z,14.90
2019-03-31T19:03:16.798Z,14.80
2019-03-31T19:06:09.645Z,14.70
2019-03-31T19:08:52.882Z,14.70
2019-03-31T19:11:42.244Z,14.60
2019-03-31T19:14:24.942Z,14.50
2019-03-31T19:17:01.416Z,14.40
2019-03-31T19:19:51.191Z,14.30
2019-03-31T19:22:47.068Z,14.30
2019-03-31T19:25:48.689Z,14.20
2019-03-31T19:28:27.614Z,14.20
2019-03-31T19:31:23.450Z,14.10
2019-03-31T19:34:11.604Z,14.00
2019-03-31T19:37:07.277Z,14.00
2019-03-31T19:40:13.326Z,13.90
2019-03-31T19:42:57.186Z,13.80
2019-03-31T19:45:41.612Z,13.80
2019-03-31T19:48:31.455Z,13.70
2019-03-31T19:51:16.451Z,13.60
2019-03-31T19:54:20.991Z,13.60
2019-03-31T19:57:00.709Z,13.50
2019-03-31T19:59:49.245Z,13.40
2019-03-31T20:02:33.411Z,13.30
2019-03-31T20:05:29.692Z,13.30
2019-03-31T20:08:10.514Z,13.30
2019-03-31T20:11:03.566Z,13.20
2019-03-31T20:14:00.040Z,13.20
2019-03-31T20:17:02.076Z,13.10
2019-03-31T20:19:50.968Z,13.10
2019-03-31T20:22:33.116Z,13.00
2019-03-31T20:25:26.807Z,12.90
2019-03-31T20:28:22.740Z,12.90
2019-03-31T20:31:00.703Z,12.80
2019-03-31T20:33:38.838Z,12.70
2019-03-31T20:36:28.813Z,12.70
2019-03-31T20:39:06.942Z,12.70
2019-03-31T20:41:58.586Z,12.60
2019-03-31T20:44:29.844Z,12.60
2019-03-31T20:47:00.466Z,12.50
2019-03-31T20:49:31.109Z,12.50
2019-03-31T20:52:01.740Z,12.50
2019-03-31T20:54:33.144Z,12.40
2019-03-31T20:57:05.178Z,12.40
2019-03-31T20:59:35.849Z,12.30
2019-03-31T21:02:06.638Z,12.30
2019-03-31T21:04:37.176Z,12.30
2019-03-31T21:07:10.071Z,12.30
2019-03-31T21:09:45.295Z,12.30
2019-03-31T21:12:13.433Z,12.20
2019-03-31T21:14:43.982Z,12.20
2019-03-31T21:17:14.644Z,12.20
2019-03-31T21:19:45.241Z,12.10
2019-03-31T21:22:16.405Z,12.10
2019-03-31T21:24:46.896Z,12.00
2019-03-31T21:27:17.530Z,12.00
2019-03-31T21:29:48.319Z,12.00
2019-03-31T21:32:18.805Z,12.00
2019-03-31T21:34:49.588Z,12.00
2019-03-31T21:37:20.074Z,12.00
2019-03-31T21:39:50.782Z,12.00
2019-03-31T21:42:21.437Z,11.90
2019-03-31T21:44:52.053Z,11.90
2019-03-31T21:47:27.399Z,11.90
2019-03-31T21:50:09.747Z,11.90
2019-03-31T21:52:50.604Z,11.80
2019-03-31T21:55:18.952Z,11.80
2019-03-31T21:57:49.672Z,11.70
2019-03-31T22:00:26.351Z,11.70
2019-03-31T22:02:58.514Z,11.70
2019-03-31T22:05:29.114Z,11.60
2019-03-31T22:07:59.721Z,11.60
2019-03-31T22:10:30.278Z,11.50
2019-03-31T22:13:00.882Z,11.50
2019-03-31T22:15:31.456Z,11.40
2019-03-31T22:18:02.345Z,11.40
2019-03-31T22:20:32.939Z,11.30
2019-03-31T22:23:03.564Z,11.30
2019-03-31T22:25:34.181Z,11.30
2019-03-31T22:28:04.753Z,11.20
2019-03-31T22:30:36.845Z,11.20
2019-03-31T22:33:07.328Z,11.20
2019-03-31T22:35:38.163Z,11.10
2019-03-31T22:38:09.191Z,11.10
2019-03-31T22:40:39.656Z,11.10
2019-03-31T22:43:10.327Z,11.10
2019-03-31T22:45:40.916Z,11.10
2019-03-31T22:48:11.427Z,11.00
2019-03-31T22:50:41.948Z,11.00
2019-03-31T22:53:12.436Z,11.00
2019-03-31T22:55:42.981Z,10.90
2019-03-31T22:58:13.488Z,10.90
2019-03-31T23:00:44.102Z,10.90
2019-03-31T23:03:16.364Z,10.80
2019-03-31T23:05:46.912Z,10.80
2019-03-31T23:08:17.616Z,10.80
2019-03-31T23:10:48.277Z,10.80
2019-03-31T23:13:18.789Z,10.70
2019-03-31T23:15:49.322Z,10.70
2019-03-31T23:18:20.353Z,10.70
2019-03-31T23:20:50.984Z,10.60
2019-03-31T23:23:21.909Z,10.60
2019-03-31T23:25:52.523Z,10.60
2019-03-31T23:28:23.056Z,10.50
2019-03-31T23:30:53.700Z,10.50
2019-03-31T23:33:24.291Z,10.40
2019-03-31T23:35:54.849Z,10.40
2019-03-31T23:38:25.442Z,10.50
2019-03-31T23:40:55.937Z,10.40
2019-03-31T23:43:26.754Z,10.40
2019-03-31T23:45:57.368Z,10.40
2019-03-31T23:48:28.449Z,10.40
2019-03-31T23:51:01.427Z,10.40
2019-03-31T23:53:32.041Z,10.40
2019-03-31T23:56:03.273Z,10.30
2019-03-31T23:58:33.859Z,10.30
